createdAt,value
2018-12-07T00:01:32.629Z,12.10
2018-12-07T00:04:01.530Z,12.20
2018-12-07T00:06:29.983Z,12.20
2018-12-07T00:08:58.389Z,12.20
2018-12-07T00:11:26.795Z,12.20
2018-12-07T00:13:55.185Z,12.20
2018-12-07T00:16:23.570Z,12.10
2018-12-07T00:18:52.078Z,12.10
2018-12-07T00:21:20.529Z,12.10
2018-12-07T00:23:48.957Z,12.00
2018-12-07T00:26:17.358Z,12.00
2018-12-07T00:28:45.749Z,12.00
2018-12-07T00:31:14.358Z,12.00
2018-12-07T00:33:42.765Z,12.00
2018-12-07T00:36:12.038Z,12.00
2018-12-07T00:38:40.472Z,12.00
2018-12-07T00:41:08.892Z,12.00
2018-12-07T00:43:37.289Z,12.10
2018-12-07T00:46:05.678Z,12.10
2018-12-07T00:48:34.134Z,12.10
2018-12-07T00:51:02.545Z,12.10
2018-12-07T00:53:30.976Z,12.10
2018-12-07T00:55:59.430Z,12.10
2018-12-07T00:58:27.916Z,12.10
2018-12-07T01:00:56.508Z,12.10
2018-12-07T01:03:25.095Z,12.10
2018-12-07T01:05:53.522Z,12.20
2018-12-07T01:08:21.942Z,12.10
2018-12-07T01:10:50.341Z,12.10
2018-12-07T01:13:18.704Z,12.10
2018-12-07T01:15:47.270Z,12.10
2018-12-07T01:18:15.762Z,12.10
2018-12-07T01:20:44.157Z,12.20
2018-12-07T01:23:12.606Z,12.20
2018-12-07T01:25:41.065Z,12.20
2018-12-07T01:28:09.422Z,12.20
2018-12-07T01:30:37.864Z,12.20
2018-12-07T01:33:06.284Z,12.20
2018-12-07T01:35:34.678Z,12.20
2018-12-07T01:38:03.104Z,12.30
2018-12-07T01:40:31.553Z,12.30
2018-12-07T01:42:59.972Z,12.30
2018-12-07T01:45:28.386Z,12.30
2018-12-07T01:47:56.784Z,12.20
2018-12-07T01:50:25.302Z,12.20
2018-12-07T01:52:53.730Z,12.20
2018-12-07T01:55:22.206Z,12.20
2018-12-07T01:57:50.668Z,12.10
2018-12-07T02:00:19.198Z,12.10
2018-12-07T02:02:47.620Z,12.10
2018-12-07T02:05:16.088Z,12.00
2018-12-07T02:07:44.477Z,12.00
2018-12-07T02:10:13.016Z,12.00
2018-12-07T02:12:41.463Z,12.00
2018-12-07T02:15:09.881Z,12.00
2018-12-07T02:17:38.282Z,12.00
2018-12-07T02:20:06.852Z,12.00
2018-12-07T02:22:35.378Z,12.00
2018-12-07T02:28:00.444Z,12.00
2018-12-07T02:30:29.058Z,11.90
2018-12-07T02:32:57.767Z,11.90
2018-12-07T02:35:26.262Z,11.90
2018-12-07T02:37:54.741Z,11.90
2018-12-07T02:40:24.111Z,11.90
2018-12-07T02:42:52.525Z,12.00
2018-12-07T02:45:20.956Z,12.00
2018-12-07T02:47:50.220Z,11.90
2018-12-07T02:50:18.642Z,11.90
2018-12-07T02:52:47.056Z,11.90
2018-12-07T02:55:15.579Z,11.90
2018-12-07T02:57:44.117Z,12.00
2018-12-07T03:00:12.665Z,12.00
2018-12-07T03:02:42.036Z,12.00
2018-12-07T03:05:10.772Z,12.00
2018-12-07T03:07:39.186Z,12.00
2018-12-07T03:10:07.795Z,11.90
2018-12-07T03:12:36.250Z,11.90
2018-12-07T03:15:05.798Z,11.90
2018-12-07T03:17:34.240Z,12.00
2018-12-07T03:20:02.822Z,11.90
2018-12-07T03:22:31.210Z,11.90
2018-12-07T03:24:59.608Z,11.90
2018-12-07T03:27:28.490Z,11.90
2018-12-07T03:29:57.240Z,12.00
2018-12-07T03:32:25.667Z,12.00
2018-12-07T03:34:54.094Z,12.00
2018-12-07T03:37:22.523Z,12.00
2018-12-07T03:39:50.917Z,12.00
2018-12-07T03:42:19.565Z,12.00
2018-12-07T03:44:47.988Z,12.00
2018-12-07T03:47:16.512Z,12.10
2018-12-07T03:49:44.990Z,12.10
2018-12-07T03:52:13.496Z,12.10
2018-12-07T03:54:41.948Z,12.10
2018-12-07T03:57:10.370Z,12.10
2018-12-07T03:59:38.820Z,12.10
2018-12-07T04:02:07.270Z,12.10
2018-12-07T04:04:35.731Z,12.10
2018-12-07T04:07:04.421Z,12.10
2018-12-07T04:09:33.017Z,12.10
2018-12-07T04:12:01.513Z,12.10
2018-12-07T04:14:30.017Z,12.10
2018-12-07T04:16:58.393Z,12.10
2018-12-07T04:19:26.832Z,12.10
2018-12-07T04:21:56.070Z,12.10
2018-12-07T04:24:24.478Z,12.10
2018-12-07T04:26:52.931Z,12.10
2018-12-07T04:29:21.507Z,12.00
2018-12-07T04:31:49.963Z,12.00
2018-12-07T04:34:18.772Z,12.00
2018-12-07T04:36:47.210Z,11.90
2018-12-07T04:39:15.569Z,11.90
2018-12-07T04:41:43.970Z,11.80
2018-12-07T04:44:12.526Z,11.70
2018-12-07T04:46:41.091Z,11.70
2018-12-07T04:49:09.611Z,11.60
2018-12-07T04:51:38.032Z,11.60
2018-12-07T04:54:06.500Z,11.50
2018-12-07T04:56:34.946Z,11.40
2018-12-07T04:59:03.422Z,11.40
2018-12-07T05:01:31.877Z,11.30
2018-12-07T05:04:00.308Z,11.20
2018-12-07T05:06:28.908Z,11.20
2018-12-07T05:08:57.334Z,11.10
2018-12-07T05:11:25.854Z,11.00
2018-12-07T05:13:54.319Z,11.00
2018-12-07T05:16:22.776Z,11.00
2018-12-07T05:18:51.918Z,10.90
2018-12-07T05:21:20.394Z,10.90
2018-12-07T05:23:49.328Z,10.90
2018-12-07T05:26:17.741Z,10.90
2018-12-07T05:28:46.860Z,10.80
2018-12-07T05:31:15.531Z,10.80
2018-12-07T05:33:44.033Z,10.80
2018-12-07T05:36:12.496Z,10.80
2018-12-07T05:38:40.974Z,10.80
2018-12-07T05:41:09.449Z,10.80
2018-12-07T05:43:47.819Z,10.70
2018-12-07T05:46:16.286Z,10.70
2018-12-07T05:48:45.777Z,10.70
2018-12-07T05:51:15.005Z,10.60
2018-12-07T05:53:43.796Z,10.60
2018-12-07T05:56:13.345Z,10.60
2018-12-07T05:58:41.738Z,10.60
2018-12-07T06:01:10.146Z,10.60
2018-12-07T06:03:38.568Z,10.50
2018-12-07T06:06:07.424Z,10.50
2018-12-07T06:08:36.179Z,10.50
2018-12-07T06:11:04.682Z,10.50
2018-12-07T06:13:33.694Z,10.50
2018-12-07T06:16:02.113Z,10.50
2018-12-07T06:18:30.770Z,10.50
2018-12-07T06:21:00.165Z,10.50
2018-12-07T06:23:28.586Z,10.50
2018-12-07T06:26:00.963Z,10.50
2018-12-07T07:26:34.523Z,10.70
2018-12-07T07:29:02.873Z,10.70
2018-12-07T07:31:31.925Z,10.80
2018-12-07T07:34:00.335Z,10.80
2018-12-07T07:36:29.912Z,10.80
2018-12-07T07:38:59.228Z,10.90
2018-12-07T07:41:28.292Z,10.90
2018-12-07T07:43:56.659Z,10.90
2018-12-07T07:46:25.095Z,10.90
2018-12-07T07:48:53.959Z,10.90
2018-12-07T07:51:22.771Z,11.00
2018-12-07T07:53:51.373Z,11.00
2018-12-07T07:56:21.281Z,11.00
2018-12-07T07:58:49.674Z,11.10
2018-12-07T08:01:18.167Z,11.10
2018-12-07T08:03:46.580Z,11.10
2018-12-07T08:06:15.041Z,11.10
2018-12-07T08:08:44.410Z,11.10
2018-12-07T08:11:12.750Z,11.20
2018-12-07T08:13:41.469Z,11.20
2018-12-07T08:16:09.964Z,11.20
2018-12-07T08:18:38.607Z,11.30
2018-12-07T08:21:07.037Z,11.30
2018-12-07T08:23:35.401Z,11.30
2018-12-07T08:26:03.919Z,11.40
2018-12-07T08:28:32.779Z,11.40
2018-12-07T08:31:01.234Z,11.40
2018-12-07T08:33:29.641Z,11.40
2018-12-07T08:35:58.137Z,11.40
2018-12-07T08:38:26.584Z,11.40
2018-12-07T08:40:55.413Z,11.40
2018-12-07T08:43:23.930Z,11.40
2018-12-07T08:45:52.422Z,11.40
2018-12-07T08:48:20.865Z,11.40
2018-12-07T08:50:49.355Z,11.40
2018-12-07T08:53:18.498Z,11.40
2018-12-07T08:55:47.173Z,11.40
2018-12-07T08:58:15.541Z,11.40
2018-12-07T09:00:47.130Z,11.40
2018-12-07T09:03:15.495Z,11.40
2018-12-07T09:05:43.987Z,11.40
2018-12-07T09:08:15.400Z,11.40
2018-12-07T09:10:42.786Z,11.40
2018-12-07T09:13:11.221Z,11.40
2018-12-07T09:15:39.608Z,11.40
2018-12-07T09:18:09.925Z,11.40
2018-12-07T09:20:38.316Z,11.40
2018-12-07T09:23:12.900Z,11.40
2018-12-07T09:25:41.620Z,11.40
2018-12-07T09:28:10.050Z,11.40
2018-12-07T09:30:38.931Z,11.40
2018-12-07T09:33:07.642Z,11.50
2018-12-07T09:35:36.330Z,11.50
2018-12-07T09:38:04.748Z,11.50
2018-12-07T09:40:33.866Z,11.50
2018-12-07T09:43:02.578Z,11.50
2018-12-07T09:45:31.652Z,11.50
2018-12-07T09:48:01.658Z,11.50
2018-12-07T09:50:30.947Z,11.50
2018-12-07T09:52:59.606Z,11.50
2018-12-07T09:55:27.959Z,11.50
2018-12-07T09:57:57.250Z,11.60
2018-12-07T10:00:25.615Z,11.60
2018-12-07T10:02:55.269Z,11.70
2018-12-07T10:05:23.737Z,11.70
2018-12-07T10:07:52.188Z,11.70
2018-12-07T10:10:21.473Z,11.60
2018-12-07T10:12:50.573Z,11.60
2018-12-07T10:15:18.928Z,11.60
2018-12-07T10:17:47.331Z,11.70
2018-12-07T10:20:15.750Z,11.70
2018-12-07T10:22:44.133Z,11.80
2018-12-07T10:25:12.617Z,11.80
2018-12-07T10:27:41.005Z,11.80
2018-12-07T10:30:09.795Z,11.80
2018-12-07T10:32:38.330Z,11.90
2018-12-07T10:35:06.950Z,11.90
2018-12-07T10:37:35.368Z,12.00
2018-12-07T10:40:05.071Z,12.00
2018-12-07T10:42:33.798Z,12.00
2018-12-07T10:45:19.131Z,12.00
2018-12-07T10:48:04.026Z,12.10
2018-12-07T10:50:33.049Z,12.10
2018-12-07T10:53:01.512Z,12.10
2018-12-07T10:55:30.525Z,12.20
2018-12-07T10:57:59.316Z,12.20
2018-12-07T11:00:49.408Z,12.20
2018-12-07T11:03:27.966Z,12.20
2018-12-07T11:06:19.597Z,12.20
2018-12-07T13:23:11.334Z,12.60
2018-12-07T13:25:40.674Z,12.70
2018-12-07T13:28:13.503Z,12.70
2018-12-07T13:30:42.609Z,12.70
2018-12-07T13:33:12.973Z,12.70
2018-12-07T13:35:42.253Z,12.70
2018-12-07T13:38:16.802Z,12.70
2018-12-07T13:40:46.377Z,12.70
2018-12-07T13:43:15.126Z,12.60
2018-12-07T13:45:46.420Z,12.70
2018-12-07T13:48:15.183Z,12.70
2018-12-07T13:50:45.234Z,12.60
2018-12-07T13:53:16.539Z,12.60
2018-12-07T13:55:46.299Z,12.50
2018-12-07T13:58:17.388Z,12.50
2018-12-07T14:00:46.268Z,12.50
2018-12-07T14:03:15.248Z,12.50
2018-12-07T14:08:50.199Z,12.40
2018-12-07T14:11:20.053Z,12.50
2018-12-07T14:13:51.079Z,12.50
2018-12-07T14:16:20.960Z,12.50
2018-12-07T14:18:49.530Z,12.40
2018-12-07T14:21:20.885Z,12.40
2018-12-07T14:23:49.694Z,12.40
2018-12-07T14:26:18.595Z,12.40
2018-12-07T14:28:47.557Z,12.40
2018-12-07T14:31:17.290Z,12.40
2018-12-07T14:33:47.123Z,12.40
2018-12-07T14:36:18.246Z,12.30
2018-12-07T14:38:48.080Z,12.30
2018-12-07T14:41:23.295Z,12.30
2018-12-07T14:43:54.557Z,12.30
2018-12-07T15:07:40.914Z,12.20
2018-12-07T15:10:13.459Z,12.20
2018-12-07T15:12:42.549Z,12.20
2018-12-07T15:15:13.837Z,12.20
2018-12-07T15:17:44.227Z,12.10
2018-12-07T15:20:14.004Z,12.10
2018-12-07T15:22:43.318Z,12.10
2018-12-07T15:25:12.640Z,12.10
2018-12-07T15:27:41.879Z,12.10
2018-12-07T15:30:12.050Z,12.10
2018-12-07T15:32:43.121Z,12.00
2018-12-07T15:35:16.845Z,11.90
2018-12-07T15:37:46.767Z,11.80
2018-12-07T15:40:16.739Z,11.70
2018-12-07T15:42:45.849Z,11.60
2018-12-07T15:45:17.023Z,11.60
2018-12-07T15:47:46.524Z,11.50
2018-12-07T15:50:16.046Z,11.50
2018-12-07T15:52:49.966Z,11.40
2018-12-07T15:55:19.671Z,11.40
2018-12-07T15:57:50.501Z,11.30
